createdAt,value
2018-05-04T00:00:13.422Z,3.30
2018-05-04T00:02:42.204Z,3.20
2018-05-04T00:05:10.516Z,4.10
2018-05-04T00:07:38.853Z,2.62
2018-05-04T00:10:07.970Z,3.15
2018-05-04T00:12:36.304Z,3.10
2018-05-04T00:15:04.604Z,3.28
2018-05-04T00:17:32.957Z,3.25
2018-05-04T00:20:01.292Z,3.42
2018-05-04T00:22:29.655Z,3.50
2018-05-04T00:24:58.037Z,3.87
2018-05-04T00:27:26.365Z,4.00
2018-05-04T00:29:54.691Z,4.30
2018-05-04T00:32:24.523Z,3.72
2018-05-04T00:34:52.848Z,4.00
2018-05-04T00:37:21.204Z,4.28
2018-05-04T00:39:49.579Z,3.78
2018-05-04T00:42:17.928Z,3.50
2018-05-04T00:44:46.296Z,3.35
2018-05-04T00:47:14.816Z,3.30
2018-05-04T00:49:43.131Z,4.80
2018-05-04T00:52:11.616Z,4.25
2018-05-04T00:54:39.976Z,4.53
2018-05-04T00:57:08.313Z,3.65
2018-05-04T00:59:36.640Z,3.28
2018-05-04T01:02:05.985Z,5.20
2018-05-04T01:04:34.332Z,3.55
2018-05-04T01:07:02.667Z,4.15
2018-05-04T01:09:31.126Z,4.22
2018-05-04T01:11:59.492Z,4.60
2018-05-04T01:14:27.817Z,3.78
2018-05-04T01:16:56.540Z,3.55
2018-05-04T01:19:24.976Z,4.00
2018-05-04T01:21:53.297Z,4.03
2018-05-04T01:24:22.335Z,4.72
2018-05-04T01:26:50.823Z,4.50
2018-05-04T01:29:19.407Z,4.37
2018-05-04T01:31:49.207Z,4.72
2018-05-04T01:34:18.279Z,5.00
2018-05-04T01:36:47.054Z,6.05
2018-05-04T01:39:15.435Z,4.20
2018-05-04T01:41:43.829Z,5.35
2018-05-04T01:44:12.473Z,5.25
2018-05-04T01:46:43.085Z,5.57
2018-05-04T01:49:12.428Z,5.93
2018-05-04T01:51:40.945Z,7.18
2018-05-04T01:54:10.728Z,4.90
2018-05-04T01:56:39.342Z,6.00
2018-05-04T01:59:07.863Z,5.00
2018-05-04T02:01:36.222Z,5.93
2018-05-04T02:04:04.630Z,5.80
2018-05-04T02:06:33.053Z,5.97
2018-05-04T02:09:02.384Z,5.05
2018-05-04T02:11:30.862Z,5.35
2018-05-04T02:13:59.741Z,6.60
2018-05-04T02:16:28.336Z,6.12
2018-05-04T02:18:57.538Z,5.50
2018-05-04T02:21:26.285Z,5.70
2018-05-04T02:23:56.136Z,5.82
2018-05-04T02:26:25.799Z,6.65
2018-05-04T02:28:54.193Z,6.57
2018-05-04T02:31:22.576Z,6.28
2018-05-04T02:33:52.328Z,6.30
2018-05-04T02:36:21.072Z,5.85
2018-05-04T02:38:49.674Z,5.20
2018-05-04T02:41:21.128Z,6.85
2018-05-04T02:43:50.804Z,5.40
2018-05-04T02:46:20.233Z,7.80
2018-05-04T02:48:52.708Z,6.95
2018-05-04T02:51:21.348Z,6.35
2018-05-04T02:53:51.228Z,5.82
2018-05-04T02:56:20.694Z,6.55
2018-05-04T02:58:50.255Z,6.12
2018-05-04T03:01:19.059Z,6.15
2018-05-04T03:03:49.483Z,6.03
2018-05-04T03:06:19.171Z,5.93
2018-05-04T03:08:49.487Z,6.70
2018-05-04T03:11:18.060Z,6.10
2018-05-04T03:13:46.470Z,5.75
2018-05-04T03:16:14.824Z,5.28
2018-05-04T03:18:43.240Z,5.97
2018-05-04T03:21:11.820Z,5.50
2018-05-04T03:23:42.148Z,6.15
2018-05-04T03:26:10.478Z,6.90
2018-05-04T03:28:39.403Z,7.40
2018-05-04T03:31:08.642Z,7.00
2018-05-04T03:33:37.077Z,6.60
2018-05-04T03:36:05.599Z,6.97
2018-05-04T03:38:33.940Z,6.50
2018-05-04T03:41:03.561Z,6.40
2018-05-04T03:43:33.886Z,6.15
2018-05-04T03:46:02.233Z,6.62
2018-05-04T03:48:30.572Z,6.85
2018-05-04T03:50:58.888Z,7.35
2018-05-04T03:53:27.264Z,7.15
2018-05-04T03:55:55.676Z,7.10
2018-05-04T03:58:35.905Z,6.97
2018-05-04T04:01:16.461Z,7.80
2018-05-04T04:03:57.711Z,6.03
2018-05-04T04:06:26.116Z,6.87
2018-05-04T04:08:55.417Z,6.30
2018-05-04T04:11:24.591Z,7.07
2018-05-04T04:13:53.476Z,7.53
2018-05-04T04:16:22.736Z,6.55
2018-05-04T04:18:51.394Z,6.50
2018-05-04T04:21:22.245Z,7.60
2018-05-04T04:23:52.468Z,7.82
2018-05-04T04:26:22.570Z,7.18
2018-05-04T04:28:51.909Z,8.00
2018-05-04T04:31:21.856Z,8.50
2018-05-04T04:33:50.817Z,8.70
2018-05-04T04:36:21.087Z,10.10
2018-05-04T04:38:50.179Z,8.02
2018-05-04T04:41:19.718Z,8.20
2018-05-04T04:43:49.296Z,9.07
2018-05-04T04:46:17.729Z,7.70
2018-05-04T04:48:46.056Z,8.88
2018-05-04T04:51:15.515Z,9.85
2018-05-04T04:53:44.152Z,9.57
2018-05-04T04:56:12.674Z,9.25
2018-05-04T04:58:41.937Z,9.25
2018-05-04T05:01:10.412Z,9.77
2018-05-04T05:03:38.780Z,8.27
2018-05-04T05:06:07.156Z,7.12
2018-05-04T05:08:35.542Z,8.02
2018-05-04T05:11:03.873Z,8.90
2018-05-04T05:13:32.283Z,8.95
2018-05-04T05:16:00.651Z,8.30
2018-05-04T05:18:29.122Z,8.15
2018-05-04T05:20:57.631Z,7.47
2018-05-04T05:23:26.386Z,7.20
2018-05-04T05:25:55.531Z,7.97
2018-05-04T05:28:25.277Z,8.80
2018-05-04T05:30:54.260Z,7.80
2018-05-04T05:33:22.646Z,7.40
2018-05-04T05:35:51.104Z,7.90
2018-05-04T05:38:20.286Z,7.22
2018-05-04T05:40:48.818Z,8.15
2018-05-04T05:43:17.383Z,7.15
2018-05-04T05:45:46.631Z,7.07
2018-05-04T05:48:15.481Z,7.22
2018-05-04T05:50:47.873Z,5.35
2018-05-04T05:53:18.617Z,6.53
2018-05-04T05:55:49.925Z,6.95
2018-05-04T05:58:20.323Z,7.18
2018-05-04T06:03:26.275Z,6.03
2018-05-04T06:05:55.962Z,6.60
2018-05-04T06:08:24.416Z,6.45
2018-05-04T06:10:54.397Z,6.70
2018-05-04T06:13:24.386Z,8.32
2018-05-04T06:15:52.857Z,7.25
2018-05-04T06:18:21.196Z,7.82
2018-05-04T06:20:49.836Z,6.80
2018-05-04T06:23:18.384Z,6.55
2018-05-04T06:25:46.806Z,6.62
2018-05-04T06:28:15.326Z,6.30
2018-05-04T06:30:43.798Z,5.87
2018-05-04T06:33:12.193Z,4.97
2018-05-04T06:35:40.722Z,4.40
2018-05-04T06:38:10.069Z,6.60
2018-05-04T06:40:38.444Z,4.65
2018-05-04T06:43:07.593Z,5.40
2018-05-04T06:45:35.972Z,4.55
2018-05-04T06:48:04.298Z,4.87
2018-05-04T06:50:32.680Z,5.22
2018-05-04T06:53:01.107Z,5.57
2018-05-04T06:55:29.507Z,4.05
2018-05-04T06:57:58.297Z,4.57
2018-05-04T07:00:26.703Z,4.57
2018-05-04T07:02:55.054Z,4.85
2018-05-04T07:05:23.841Z,3.63
2018-05-04T07:07:52.191Z,3.60
2018-05-04T07:10:20.676Z,2.50
2018-05-04T07:12:49.438Z,3.40
2018-05-04T07:15:18.044Z,3.07
2018-05-04T07:17:46.396Z,2.80
2018-05-04T07:20:15.137Z,2.50
2018-05-04T07:22:43.577Z,2.87
2018-05-04T07:25:11.985Z,2.50
2018-05-04T07:27:40.346Z,2.67
2018-05-04T07:30:08.699Z,2.10
2018-05-04T07:32:37.121Z,2.30
2018-05-04T07:35:05.467Z,2.43
2018-05-04T07:37:33.817Z,2.00
2018-05-04T07:40:02.139Z,1.53
2018-05-04T07:42:30.555Z,4.80
2018-05-04T07:44:58.897Z,1.60
2018-05-04T07:47:27.218Z,2.20
2018-05-04T07:49:55.624Z,1.83
2018-05-04T07:52:23.956Z,1.87
2018-05-04T07:54:52.275Z,1.53
2018-05-04T07:57:21.564Z,1.50
2018-05-04T07:59:49.925Z,1.60
2018-05-04T08:02:18.768Z,1.40
2018-05-04T08:04:47.214Z,1.50
2018-05-04T08:07:15.822Z,1.40
2018-05-04T08:09:44.217Z,1.77
2018-05-04T08:12:13.093Z,1.50
2018-05-04T08:14:41.436Z,1.53
2018-05-04T08:17:09.763Z,1.83
2018-05-04T08:19:38.367Z,1.47
2018-05-04T08:22:06.686Z,1.30
2018-05-04T08:24:35.015Z,2.33
2018-05-04T08:27:03.532Z,1.20
2018-05-04T08:29:32.817Z,1.60
2018-05-04T08:32:01.141Z,2.27
2018-05-04T08:34:29.517Z,1.30
2018-05-04T08:36:57.853Z,1.93
2018-05-04T08:39:26.184Z,1.70
2018-05-04T08:41:55.294Z,1.50
2018-05-04T08:44:23.624Z,1.53
2018-05-04T08:46:52.082Z,1.73
2018-05-04T08:49:20.508Z,1.60
2018-05-04T08:51:49.021Z,1.77
2018-05-04T08:54:17.488Z,1.83
2018-05-04T08:56:46.802Z,1.80
2018-05-04T08:59:15.574Z,1.70
2018-05-04T09:01:46.760Z,1.63
2018-05-04T09:04:15.198Z,1.60
2018-05-04T09:06:43.634Z,2.00
2018-05-04T09:09:12.145Z,1.50
2018-05-04T09:11:41.115Z,1.13
2018-05-04T09:14:09.466Z,1.80
2018-05-04T09:16:37.839Z,1.40
2018-05-04T09:19:06.980Z,1.67
2018-05-04T09:21:35.404Z,1.10
2018-05-04T09:24:03.765Z,1.33
2018-05-04T09:26:32.158Z,1.40
2018-05-04T09:29:00.545Z,1.50
2018-05-04T09:31:28.898Z,1.87
2018-05-04T09:33:58.154Z,1.57
2018-05-04T09:36:26.881Z,2.13
2018-05-04T09:38:55.219Z,2.10
2018-05-04T09:41:24.287Z,1.37
2018-05-04T09:43:53.449Z,1.17
2018-05-04T09:46:21.931Z,1.30
2018-05-04T09:48:50.313Z,1.90
2018-05-04T09:51:18.690Z,1.70
2018-05-04T09:53:47.049Z,2.07
2018-05-04T09:56:15.473Z,1.60
2018-05-04T09:58:43.869Z,2.47
2018-05-04T10:01:12.316Z,3.17
2018-05-04T10:03:40.745Z,3.10
2018-05-04T10:06:09.082Z,3.80
2018-05-04T10:08:37.428Z,3.23
2018-05-04T10:11:05.802Z,2.90
2018-05-04T10:13:34.149Z,3.20
2018-05-04T10:16:02.600Z,2.40
2018-05-04T10:18:32.011Z,3.67
2018-05-04T10:21:00.337Z,3.73
2018-05-04T10:23:28.696Z,3.23
2018-05-04T10:25:57.102Z,1.90
2018-05-04T10:28:25.514Z,1.73
2018-05-04T10:30:53.944Z,1.97
2018-05-04T10:33:22.373Z,2.00
2018-05-04T10:35:50.759Z,2.27
2018-05-04T10:38:19.154Z,2.50
2018-05-04T10:40:47.539Z,2.53
2018-05-04T10:43:15.904Z,2.10
2018-05-04T10:45:44.284Z,2.30
2018-05-04T10:48:13.289Z,2.07
2018-05-04T10:50:41.671Z,1.57
2018-05-04T10:53:10.023Z,2.13
2018-05-04T10:55:38.404Z,1.80
2018-05-04T10:58:06.749Z,1.60
2018-05-04T11:00:35.159Z,2.00
2018-05-04T11:03:03.658Z,1.47
2018-05-04T11:05:31.971Z,2.00
2018-05-04T11:08:00.293Z,1.83
2018-05-04T11:10:28.917Z,1.80
2018-05-04T11:12:57.299Z,3.23
2018-05-04T11:15:25.718Z,1.80
2018-05-04T11:17:54.017Z,2.27
2018-05-04T11:20:22.533Z,2.20
2018-05-04T11:22:50.898Z,2.40
2018-05-04T11:25:20.611Z,2.10
2018-05-04T11:27:48.955Z,1.77
2018-05-04T11:30:17.302Z,1.80
2018-05-04T11:32:46.648Z,2.80
2018-05-04T11:35:15.339Z,3.93
2018-05-04T11:37:43.836Z,3.13
2018-05-04T11:40:13.907Z,2.70
2018-05-04T11:42:42.286Z,2.97
2018-05-04T11:45:10.628Z,3.27
2018-05-04T11:47:39.007Z,2.50
2018-05-04T11:50:07.362Z,2.50
2018-05-04T11:52:35.696Z,2.80
2018-05-04T11:55:04.113Z,3.03
2018-05-04T11:57:32.452Z,2.30
2018-05-04T12:00:00.769Z,2.80
2018-05-04T12:02:30.039Z,2.40
2018-05-04T12:04:58.354Z,3.40
2018-05-04T12:07:26.840Z,2.70
2018-05-04T12:09:55.420Z,2.77
2018-05-04T12:12:24.845Z,2.77
2018-05-04T12:14:53.309Z,2.20
2018-05-04T12:17:23.278Z,2.30
2018-05-04T12:19:51.702Z,2.93
2018-05-04T12:22:20.781Z,2.90
2018-05-04T12:24:49.525Z,2.40
2018-05-04T12:27:17.957Z,2.30
2018-05-04T12:29:46.334Z,2.20
2018-05-04T12:32:14.764Z,2.40
2018-05-04T12:34:43.190Z,2.53
2018-05-04T12:37:11.956Z,2.07
2018-05-04T12:39:40.900Z,2.77
2018-05-04T12:42:09.246Z,2.47
2018-05-04T12:44:37.562Z,2.63
2018-05-04T12:47:06.004Z,2.57
2018-05-04T12:49:34.425Z,2.33
2018-05-04T12:52:02.765Z,2.63
2018-05-04T12:54:31.515Z,2.80
2018-05-04T12:56:59.835Z,2.37
2018-05-04T12:59:28.256Z,1.83
2018-05-04T13:01:56.609Z,2.30
2018-05-04T13:04:25.156Z,3.13
2018-05-04T13:06:53.452Z,2.93
2018-05-04T13:09:21.911Z,2.60
2018-05-04T13:11:50.395Z,3.03
2018-05-04T13:14:19.757Z,2.50
2018-05-04T13:16:48.217Z,2.20
2018-05-04T13:19:17.192Z,3.50
2018-05-04T13:21:45.552Z,3.73
2018-05-04T13:24:14.125Z,3.17
2018-05-04T13:26:42.569Z,3.37
2018-05-04T13:29:10.993Z,3.47
2018-05-04T13:31:39.345Z,2.40
2018-05-04T13:34:07.694Z,2.53
2018-05-04T13:36:36.073Z,2.57
2018-05-04T13:39:04.509Z,3.00
2018-05-04T13:41:32.834Z,2.43
2018-05-04T13:44:01.190Z,3.03
2018-05-04T13:46:29.569Z,2.20
2018-05-04T13:48:57.887Z,2.30
2018-05-04T13:51:26.332Z,3.80
2018-05-04T13:53:55.599Z,3.03
2018-05-04T13:56:24.138Z,2.67
2018-05-04T13:58:52.467Z,2.20
2018-05-04T14:01:20.881Z,3.33
2018-05-04T14:03:49.383Z,3.27
2018-05-04T14:06:17.751Z,2.90
2018-05-04T14:08:46.486Z,3.30
2018-05-04T14:11:14.852Z,2.90
2018-05-04T14:13:43.659Z,2.50
2018-05-04T14:16:12.022Z,3.33
2018-05-04T14:21:15.617Z,3.83
2018-05-04T14:23:44.007Z,3.80
2018-05-04T14:26:12.378Z,2.83
2018-05-04T14:28:40.745Z,2.30
2018-05-04T14:31:09.074Z,2.77
2018-05-04T14:33:37.433Z,2.80
2018-05-04T14:36:05.877Z,2.50
2018-05-04T14:38:34.195Z,3.37
2018-05-04T14:41:02.545Z,2.53
2018-05-04T14:43:31.621Z,2.87
2018-05-04T14:45:59.987Z,2.93
2018-05-04T14:48:28.300Z,2.97
2018-05-04T14:50:57.575Z,2.90
2018-05-04T14:53:25.889Z,2.90
2018-05-04T14:55:54.243Z,3.40
2018-05-04T14:58:23.218Z,2.83
2018-05-04T15:00:51.700Z,3.57
2018-05-04T15:03:20.192Z,3.27
2018-05-04T15:05:48.653Z,2.90
2018-05-04T15:08:16.980Z,2.97
2018-05-04T15:10:45.522Z,3.10
2018-05-04T15:13:14.209Z,2.90
2018-05-04T15:15:42.598Z,4.00
2018-05-04T15:18:11.065Z,3.53
2018-05-04T15:20:40.305Z,3.43
2018-05-04T15:23:10.224Z,2.80
2018-05-04T15:25:38.578Z,2.90
2018-05-04T15:28:07.593Z,3.13
2018-05-04T15:30:35.936Z,3.00
2018-05-04T15:33:04.284Z,2.97
2018-05-04T15:35:32.668Z,4.83
2018-05-04T15:38:00.998Z,2.30
2018-05-04T15:40:29.452Z,3.40
2018-05-04T15:42:58.518Z,3.40
2018-05-04T15:45:26.905Z,3.33
2018-05-04T15:47:55.257Z,4.20
2018-05-04T15:50:29.261Z,3.83
2018-05-04T15:52:57.623Z,3.40
2018-05-04T15:55:25.977Z,2.50
2018-05-04T15:57:55.132Z,3.93
2018-05-04T16:00:23.488Z,3.20
2018-05-04T16:02:51.895Z,3.67
2018-05-04T16:05:20.282Z,3.53
2018-05-04T16:07:48.697Z,2.60
2018-05-04T16:10:17.089Z,2.47
2018-05-04T16:12:46.893Z,2.83
2018-05-04T16:15:15.391Z,3.23
2018-05-04T16:17:43.903Z,2.63
2018-05-04T16:20:12.400Z,2.50
2018-05-04T16:22:40.863Z,2.47
2018-05-04T16:25:09.292Z,3.27
2018-05-04T16:27:38.278Z,3.23
2018-05-04T16:30:06.600Z,2.33
2018-05-04T16:32:34.989Z,3.37
2018-05-04T16:35:03.454Z,3.20
2018-05-04T16:37:31.790Z,3.10
2018-05-04T16:40:00.123Z,3.47
2018-05-04T16:42:28.549Z,3.27
2018-05-04T16:44:56.954Z,3.00
2018-05-04T16:47:25.423Z,3.43
2018-05-04T16:49:53.847Z,3.33
2018-05-04T16:52:22.230Z,3.43
2018-05-04T16:54:50.614Z,3.77
2018-05-04T16:57:20.325Z,3.20
2018-05-04T16:59:48.805Z,3.27
2018-05-04T17:02:17.191Z,3.27
2018-05-04T17:04:45.591Z,2.97
2018-05-04T17:07:14.031Z,3.43
2018-05-04T17:09:42.498Z,3.40
2018-05-04T17:12:10.897Z,3.20
2018-05-04T17:14:39.222Z,2.70
2018-05-04T17:17:07.562Z,3.77
2018-05-04T17:19:36.739Z,3.87
2018-05-04T17:22:05.180Z,3.30
2018-05-04T17:24:33.474Z,5.20
2018-05-04T17:27:02.599Z,3.77
2018-05-04T17:29:30.963Z,4.10
2018-05-04T17:32:00.998Z,4.30
2018-05-04T17:34:30.903Z,4.47
2018-05-04T17:36:59.437Z,3.50
2018-05-04T17:39:27.869Z,3.60
2018-05-04T17:41:56.690Z,5.90
2018-05-04T17:44:25.646Z,5.17
2018-05-04T17:46:54.194Z,5.33
2018-05-04T17:49:22.959Z,6.00
2018-05-04T17:51:51.531Z,5.33
2018-05-04T17:54:21.009Z,7.33
2018-05-04T17:56:49.418Z,4.23
2018-05-04T17:59:17.803Z,6.30
2018-05-04T18:01:46.287Z,5.07
2018-05-04T18:04:16.002Z,3.67
2018-05-04T18:06:45.204Z,4.27
2018-05-04T18:09:13.792Z,5.40
2018-05-04T18:11:42.515Z,6.23
2018-05-04T18:14:10.896Z,5.40
2018-05-04T18:16:39.214Z,5.80
2018-05-04T18:19:07.595Z,5.67
2018-05-04T18:21:35.957Z,5.70
2018-05-04T18:24:04.300Z,7.47
2018-05-04T18:26:32.653Z,5.10
2018-05-04T18:29:00.986Z,6.67
2018-05-04T18:31:29.331Z,4.80
2018-05-04T18:33:57.715Z,6.00
2018-05-04T18:36:26.095Z,5.60
2018-05-04T18:38:54.428Z,6.43
2018-05-04T18:41:22.842Z,5.40
2018-05-04T18:43:51.266Z,7.07
2018-05-04T18:46:19.862Z,4.87
2018-05-04T18:48:48.660Z,4.50
2018-05-04T18:51:17.292Z,3.50
2018-05-04T18:53:45.683Z,3.57
2018-05-04T18:56:14.833Z,4.53
2018-05-04T18:58:43.463Z,4.40
2018-05-04T19:01:12.501Z,3.80
2018-05-04T19:03:40.961Z,4.17
2018-05-04T19:06:09.321Z,5.27
2018-05-04T19:08:37.675Z,4.07
2018-05-04T19:11:06.132Z,4.87
2018-05-04T19:13:34.448Z,4.67
2018-05-04T19:16:02.795Z,5.60
2018-05-04T19:18:31.998Z,3.60
2018-05-04T19:21:00.324Z,3.90
2018-05-04T19:23:28.685Z,3.60
2018-05-04T19:25:57.424Z,4.07
2018-05-04T19:28:25.841Z,3.47
2018-05-04T19:30:54.419Z,3.50
2018-05-04T19:33:23.662Z,4.40
2018-05-04T19:35:52.100Z,4.53
2018-05-04T19:38:20.593Z,3.83
2018-05-04T19:40:49.326Z,3.33
2018-05-04T19:43:17.753Z,3.23
2018-05-04T19:45:46.233Z,2.87
2018-05-04T19:48:15.053Z,3.27
2018-05-04T19:50:43.657Z,2.70
2018-05-04T19:53:12.114Z,3.50
2018-05-04T19:55:40.525Z,2.70
2018-05-04T19:58:08.873Z,3.37
2018-05-04T20:00:37.225Z,3.50
2018-05-04T20:03:05.766Z,4.07
2018-05-04T20:05:34.095Z,3.63
2018-05-04T20:08:02.465Z,4.43
2018-05-04T20:10:30.892Z,3.87
2018-05-04T20:12:59.280Z,3.37
2018-05-04T20:15:27.609Z,3.20
2018-05-04T20:17:56.703Z,4.30
2018-05-04T20:20:25.072Z,4.07
2018-05-04T20:22:53.524Z,3.70
2018-05-04T20:25:21.909Z,3.50
2018-05-04T20:27:50.337Z,5.13
2018-05-04T20:30:19.273Z,5.03
2018-05-04T20:32:48.595Z,4.67
2018-05-04T20:35:17.026Z,4.23
2018-05-04T20:37:45.965Z,5.23
2018-05-04T20:40:14.719Z,5.23
2018-05-04T20:42:43.540Z,4.70
2018-05-04T20:45:12.556Z,4.87
2018-05-04T20:47:41.090Z,4.20
2018-05-04T20:50:09.469Z,5.37
2018-05-04T20:52:37.814Z,7.50
2018-05-04T20:55:06.476Z,7.90
2018-05-04T20:57:34.828Z,10.50
2018-05-04T21:00:03.151Z,7.37
2018-05-04T21:02:31.546Z,7.63
2018-05-04T21:04:59.886Z,5.83
2018-05-04T21:07:28.206Z,5.83
2018-05-04T21:09:56.740Z,5.73
2018-05-04T21:12:26.096Z,6.50
2018-05-04T21:14:54.469Z,5.97
2018-05-04T21:17:22.952Z,6.60
2018-05-04T21:19:51.497Z,5.93
2018-05-04T21:22:19.905Z,5.67
2018-05-04T21:24:49.534Z,6.20
2018-05-04T21:27:18.015Z,5.17
2018-05-04T21:29:46.628Z,5.80
2018-05-04T21:32:15.157Z,5.33
2018-05-04T21:34:43.540Z,4.70
2018-05-04T21:37:11.869Z,4.73
2018-05-04T21:39:40.234Z,5.37
2018-05-04T21:42:08.716Z,5.30
2018-05-04T21:44:37.039Z,6.23
2018-05-04T21:47:05.458Z,7.20
2018-05-04T21:49:33.799Z,6.95
2018-05-04T21:52:02.122Z,6.93
2018-05-04T21:54:30.482Z,7.60
2018-05-04T21:56:58.837Z,6.32
2018-05-04T21:59:27.190Z,7.20
2018-05-04T22:01:55.733Z,6.90
2018-05-04T22:04:24.122Z,6.15
2018-05-04T22:06:52.461Z,7.20
2018-05-04T22:09:20.881Z,6.60
2018-05-04T22:11:49.313Z,6.32
2018-05-04T22:14:17.712Z,6.10
2018-05-04T22:16:46.736Z,5.60
2018-05-04T22:19:15.131Z,6.57
2018-05-04T22:21:43.838Z,7.55
2018-05-04T22:24:13.005Z,8.90
2018-05-04T22:26:41.345Z,8.48
2018-05-04T22:29:09.705Z,9.43
2018-05-04T22:31:38.219Z,8.45
2018-05-04T22:34:06.579Z,5.97
2018-05-04T22:36:34.930Z,7.47
2018-05-04T22:39:05.100Z,7.53
2018-05-04T22:41:33.462Z,6.78
2018-05-04T22:44:01.870Z,7.20
2018-05-04T22:46:30.237Z,5.90
2018-05-04T22:48:58.604Z,5.90
2018-05-04T22:51:27.008Z,8.05
2018-05-04T22:53:56.106Z,6.37
2018-05-04T22:56:24.453Z,7.43
2018-05-04T23:01:44.472Z,6.90
2018-05-04T23:04:12.871Z,6.53
2018-05-04T23:06:41.206Z,8.25
2018-05-04T23:09:09.579Z,8.73
2018-05-04T23:11:37.878Z,7.35
2018-05-04T23:14:06.190Z,6.95
2018-05-04T23:16:34.538Z,7.20
2018-05-04T23:19:02.894Z,9.15
2018-05-04T23:21:31.221Z,7.85
2018-05-04T23:23:59.538Z,9.05
2018-05-04T23:26:27.861Z,7.37
2018-05-04T23:28:56.194Z,6.95
2018-05-04T23:31:24.901Z,6.70
2018-05-04T23:33:53.245Z,6.65
2018-05-04T23:36:21.674Z,7.10
2018-05-04T23:38:50.437Z,7.93
2018-05-04T23:41:20.046Z,6.72
2018-05-04T23:43:48.424Z,7.30
2018-05-04T23:46:17.538Z,7.85
2018-05-04T23:48:46.088Z,7.85
2018-05-04T23:51:15.708Z,6.87
2018-05-04T23:53:46.515Z,6.20
2018-05-04T23:56:15.886Z,5.87
2018-05-04T23:58:44.369Z,6.12
